首页
METAR-TAF:

METAR-TAF

机场 :

敖德薩國際機場

敖德薩, 乌克兰

纬度: 46-26N, 经度: 030-46E, 海拔: 42米

当前天气观测

该预报发布于32分钟前的03:00 UTC
风速4节,风向北转西北
温度 19°C
湿度 68%
气压 1013 hPa
能见度10公里或以上
1500米以下无云,无积雨云

METAR: UKOO 120300Z 34002MPS CAVOK 19/13 Q1013 R16/090060 NOSIG

时间: 06:32 (03:32 UTC)

预报

该预报发布于4小时和23分钟前的23:09 UTC
预报有效从12日的 00点(UTC)到 12日的 24点(UTC)
风速6节,风向北转西北
能見度: 6000
多云层高于1700英尺
散云层高于2000英尺, 积雨云.
几率 40% :
短暂存在
从 12日的 08点(UTC)到 12日的 16点(UTC)
风速19节,风向多变,有时为37节阵风
能見度: 0800
层高于300英尺
雷暴, 大雨, 冰雹, 飑
成为
从 12日的 16点(UTC)到 12日的 17点(UTC)
风速14节,风向北转东北,有时为27节阵风

TAF: UKOO 112309Z 1200/1224 34003MPS 6000 BKN017 SCT020CB TX30/1210Z TN19/1203Z PROB40 TEMPO 1208/1216 VRB10G19MPS 0800 +TSRAGR SQ VV003 BECMG 1216/1217 02007G14MPS

超过4000个机场的气象观测和天气预报(METAR&TAF报告)。

可查询的气象台以黄色和红色小点在地图上表示。

将鼠标移到小点上方,可查看气象台名称。

然后点击查看天气观测和预报。

如需切换地图:点击带黑十字的绿色按钮放大地图;点击带横线的绿色按钮缩小地图;或者点击绿色箭头查看邻近地区的地图。


METAR-TAF: